createdAt,value
2022-08-04T00:00:43.296Z,22.50
2022-08-04T00:03:20.586Z,22.50
2022-08-04T00:05:58.341Z,22.50
2022-08-04T00:08:36.080Z,22.40
2022-08-04T00:11:09.021Z,22.40
2022-08-04T00:13:52.722Z,22.40
2022-08-04T00:16:38.288Z,22.30
2022-08-04T00:19:12.936Z,22.30
2022-08-04T00:21:47.923Z,22.30
2022-08-04T00:24:18.557Z,22.30
2022-08-04T00:26:47.249Z,22.20
2022-08-04T00:29:16.167Z,22.20
2022-08-04T00:31:56.443Z,22.20
2022-08-04T00:34:27.208Z,22.10
2022-08-04T00:36:56.360Z,22.10
2022-08-04T00:39:26.970Z,22.10
2022-08-04T00:42:21.926Z,22.10
2022-08-04T00:45:19.047Z,22.10
2022-08-04T00:48:03.056Z,22.00
2022-08-04T00:50:41.028Z,22.00
2022-08-04T00:53:25.146Z,22.00
2022-08-04T00:56:23.301Z,21.90
2022-08-04T00:59:05.726Z,21.90
2022-08-04T01:02:02.518Z,21.90
2022-08-04T01:04:46.118Z,21.90
2022-08-04T01:07:28.940Z,21.80
2022-08-04T01:10:04.794Z,21.80
2022-08-04T01:12:59.094Z,21.80
2022-08-04T01:15:59.534Z,21.70
2022-08-04T01:18:34.200Z,21.70
2022-08-04T01:21:28.556Z,21.70
2022-08-04T01:24:24.283Z,21.70
2022-08-04T01:26:58.705Z,21.60
2022-08-04T01:29:43.800Z,21.60
2022-08-04T01:32:26.134Z,21.60
2022-08-04T01:34:59.050Z,21.60
2022-08-04T01:37:36.952Z,21.60
2022-08-04T01:40:07.442Z,21.50
2022-08-04T01:42:37.545Z,21.50
2022-08-04T01:45:09.275Z,21.50
2022-08-04T01:47:38.909Z,21.50
2022-08-04T01:50:09.670Z,21.50
2022-08-04T01:52:39.179Z,21.40
2022-08-04T01:55:10.403Z,21.50
2022-08-04T01:57:43.315Z,21.40
2022-08-04T02:00:15.372Z,21.40
2022-08-04T02:02:45.273Z,21.40
2022-08-04T02:05:16.933Z,21.40
2022-08-04T02:07:52.220Z,21.30
2022-08-04T02:10:29.173Z,21.30
2022-08-04T02:13:17.891Z,21.30
2022-08-04T02:15:57.843Z,21.30
2022-08-04T02:18:31.659Z,21.30
2022-08-04T02:21:02.287Z,21.30
2022-08-04T02:23:35.832Z,21.20
2022-08-04T02:26:06.130Z,21.20
2022-08-04T02:28:42.193Z,21.20
2022-08-04T02:31:20.105Z,21.20
2022-08-04T02:33:54.689Z,21.20
2022-08-04T02:36:28.935Z,21.20
2022-08-04T02:39:00.056Z,21.10
2022-08-04T02:41:30.256Z,21.10
2022-08-04T02:44:01.727Z,21.10
2022-08-04T02:46:32.889Z,21.10
2022-08-04T02:49:04.239Z,21.10
2022-08-04T02:51:35.552Z,21.00
2022-08-04T02:54:06.433Z,21.10
2022-08-04T02:56:37.475Z,21.00
2022-08-04T02:59:08.561Z,21.00
2022-08-04T03:01:38.450Z,21.00
2022-08-04T03:04:50.369Z,21.00
2022-08-04T03:07:47.972Z,21.00
2022-08-04T03:10:54.946Z,21.00
2022-08-04T03:13:58.454Z,20.90
2022-08-04T03:17:11.248Z,20.90
2022-08-04T03:20:17.837Z,20.90
2022-08-04T03:23:23.696Z,20.90
2022-08-04T03:26:25.440Z,20.90
2022-08-04T03:29:37.502Z,20.90
2022-08-04T03:32:30.922Z,20.80
2022-08-04T03:35:13.588Z,20.80
2022-08-04T03:38:13.447Z,20.80
2022-08-04T03:41:05.858Z,20.80
2022-08-04T03:44:12.061Z,20.80
2022-08-04T03:46:55.898Z,20.80
2022-08-04T03:49:55.418Z,20.80
2022-08-04T03:53:10.474Z,20.80
2022-08-04T03:56:00.677Z,20.80
2022-08-04T03:59:01.715Z,20.70
2022-08-04T04:02:02.361Z,20.70
2022-08-04T04:05:05.764Z,20.70
2022-08-04T04:08:19.952Z,20.70
2022-08-04T04:11:24.453Z,20.70
2022-08-04T04:14:42.009Z,20.70
2022-08-04T04:17:29.660Z,20.70
2022-08-04T04:20:34.807Z,20.70
2022-08-04T04:23:16.621Z,20.70
2022-08-04T04:26:01.235Z,20.70
2022-08-04T04:28:47.155Z,20.70
2022-08-04T04:31:38.266Z,20.70
2022-08-04T04:34:17.409Z,20.80
2022-08-04T04:36:58.304Z,20.80
2022-08-04T04:39:33.736Z,20.80
2022-08-04T04:42:18.109Z,20.90
2022-08-04T04:45:07.054Z,20.90
2022-08-04T04:48:07.212Z,21.00
2022-08-04T04:50:51.475Z,21.00
2022-08-04T04:53:29.089Z,21.00
2022-08-04T04:56:06.724Z,21.10
2022-08-04T04:58:37.016Z,21.10
2022-08-04T05:01:31.458Z,21.10
2022-08-04T05:04:17.493Z,21.20
2022-08-04T05:07:03.846Z,21.20
2022-08-04T05:09:46.957Z,21.30
2022-08-04T05:12:59.269Z,21.30
2022-08-04T05:15:18.564Z,21.40
2022-08-04T05:17:53.330Z,21.40
2022-08-04T05:20:25.109Z,21.50
2022-08-04T05:22:58.065Z,21.50
2022-08-04T05:25:35.724Z,21.60
2022-08-04T05:28:07.596Z,21.60
2022-08-04T05:30:48.259Z,21.70
2022-08-04T05:33:20.180Z,21.70
2022-08-04T05:36:21.812Z,21.80
2022-08-04T05:38:43.778Z,21.80
2022-08-04T05:41:15.258Z,21.90
2022-08-04T05:43:45.532Z,21.90
2022-08-04T05:46:14.632Z,22.00
2022-08-04T05:48:43.853Z,22.00
2022-08-04T05:51:12.917Z,22.10
2022-08-04T05:53:44.399Z,22.20
2022-08-04T05:56:16.043Z,22.20
2022-08-04T05:58:47.507Z,22.30
2022-08-04T06:01:18.262Z,22.30
2022-08-04T06:03:47.343Z,22.40
2022-08-04T06:06:18.594Z,22.50
2022-08-04T06:08:46.772Z,22.50
2022-08-04T06:11:17.573Z,22.60
2022-08-04T06:13:52.279Z,22.80
2022-08-04T06:16:29.703Z,23.00
2022-08-04T06:20:00.625Z,23.20
2022-08-04T06:21:53.399Z,23.40
2022-08-04T06:24:25.942Z,23.70
2022-08-04T06:26:56.844Z,23.90
2022-08-04T06:29:32.048Z,24.10
2022-08-04T06:32:29.490Z,24.20
2022-08-04T06:35:02.612Z,24.40
2022-08-04T06:37:42.147Z,24.50
2022-08-04T06:40:30.584Z,24.60
2022-08-04T06:43:03.773Z,24.80
2022-08-04T06:45:34.619Z,24.90
2022-08-04T06:48:03.860Z,25.00
2022-08-04T06:51:30.389Z,25.10
2022-08-04T06:53:21.375Z,25.30
2022-08-04T06:55:50.532Z,25.40
2022-08-04T06:58:22.054Z,25.50
2022-08-04T07:00:51.873Z,25.70
2022-08-04T07:03:21.697Z,25.80
2022-08-04T07:05:50.720Z,25.90
2022-08-04T07:08:20.262Z,26.10
2022-08-04T07:10:48.908Z,26.30
2022-08-04T07:13:19.526Z,26.40
2022-08-04T07:15:49.653Z,26.60
2022-08-04T07:18:17.941Z,26.70
2022-08-04T07:20:47.745Z,26.90
2022-08-04T07:23:20.005Z,27.10
2022-08-04T07:26:12.329Z,27.20
2022-08-04T07:28:43.123Z,27.30
2022-08-04T07:31:33.831Z,27.40
2022-08-04T07:34:16.901Z,27.60
2022-08-04T07:36:53.281Z,27.70
2022-08-04T07:39:28.114Z,27.80
2022-08-04T07:42:01.497Z,27.80
2022-08-04T07:44:32.934Z,27.90
2022-08-04T07:47:02.509Z,27.90
2022-08-04T07:49:57.114Z,28.00
2022-08-04T07:52:19.718Z,28.00
2022-08-04T07:54:49.265Z,28.20
2022-08-04T07:57:19.548Z,28.40
2022-08-04T08:00:10.268Z,28.60
2022-08-04T08:02:42.131Z,28.70
2022-08-04T08:05:14.679Z,28.80
2022-08-04T08:07:50.738Z,28.80
2022-08-04T08:10:23.218Z,28.90
2022-08-04T08:12:52.544Z,29.00
2022-08-04T08:15:22.738Z,29.10
2022-08-04T08:17:59.358Z,29.20
2022-08-04T08:20:32.507Z,29.40
2022-08-04T08:23:02.895Z,29.50
2022-08-04T08:25:32.538Z,29.70
2022-08-04T08:28:03.392Z,29.90
2022-08-04T08:30:33.740Z,30.00
2022-08-04T08:33:06.220Z,30.20
2022-08-04T08:35:52.081Z,30.30
2022-08-04T08:38:33.091Z,30.40
2022-08-04T08:41:22.121Z,30.50
2022-08-04T08:44:19.162Z,30.70
2022-08-04T08:47:10.762Z,30.70
2022-08-04T08:50:03.984Z,30.80
2022-08-04T08:53:01.671Z,30.90
2022-08-04T08:55:53.764Z,31.00
2022-08-04T08:58:36.815Z,31.10
2022-08-04T09:01:13.410Z,31.30
2022-08-04T09:04:28.832Z,31.40
2022-08-04T09:07:22.973Z,31.50
2022-08-04T09:10:03.612Z,31.60
2022-08-04T09:12:42.061Z,31.80
2022-08-04T09:15:16.078Z,31.90
2022-08-04T09:17:49.918Z,32.00
2022-08-04T09:20:26.651Z,32.10
2022-08-04T09:23:09.822Z,32.20
2022-08-04T09:25:44.135Z,32.30
2022-08-04T09:28:43.599Z,32.40
2022-08-04T09:31:14.267Z,32.50
2022-08-04T09:33:50.525Z,32.60
2022-08-04T09:36:31.466Z,32.70
2022-08-04T09:39:09.601Z,32.90
2022-08-04T09:41:49.615Z,33.00
2022-08-04T09:44:49.905Z,33.10
2022-08-04T09:47:23.086Z,33.10
2022-08-04T09:49:59.125Z,33.20
2022-08-04T09:52:39.387Z,33.30
2022-08-04T09:55:17.303Z,33.30
2022-08-04T09:58:06.580Z,33.40
2022-08-04T10:00:41.657Z,33.40
2022-08-04T10:03:17.448Z,33.50
2022-08-04T10:05:59.967Z,33.50
2022-08-04T10:08:45.218Z,33.50
2022-08-04T10:11:18.052Z,33.60
2022-08-04T10:13:54.520Z,33.60
2022-08-04T10:16:39.070Z,33.70
2022-08-04T10:19:21.369Z,33.70
2022-08-04T10:22:27.289Z,33.70
2022-08-04T10:26:02.666Z,33.70
2022-08-04T10:27:59.329Z,33.80
2022-08-04T10:30:31.836Z,33.80
2022-08-04T10:33:05.413Z,33.80
2022-08-04T10:35:38.730Z,33.90
2022-08-04T10:38:17.231Z,34.00
2022-08-04T10:40:49.426Z,34.00
2022-08-04T10:43:26.703Z,34.00
2022-08-04T10:45:59.729Z,34.00
2022-08-04T10:48:42.735Z,34.00
2022-08-04T10:51:24.945Z,34.10
2022-08-04T10:53:59.457Z,34.10
2022-08-04T10:56:36.021Z,34.10
2022-08-04T10:59:10.225Z,34.20
2022-08-04T11:02:00.688Z,34.20
2022-08-04T11:04:37.492Z,34.20
2022-08-04T11:07:06.511Z,34.20
2022-08-04T11:09:35.975Z,34.30
2022-08-04T11:12:11.375Z,34.30
2022-08-04T11:14:47.898Z,34.30
2022-08-04T11:17:27.361Z,34.30
2022-08-04T11:20:32.254Z,34.30
2022-08-04T11:23:05.376Z,34.40
2022-08-04T11:25:42.768Z,34.50
2022-08-04T11:28:19.830Z,34.50
2022-08-04T11:30:55.029Z,34.60
2022-08-04T11:33:37.440Z,34.60
2022-08-04T11:36:15.582Z,34.60
2022-08-04T11:38:52.307Z,34.70
2022-08-04T11:41:24.975Z,34.70
2022-08-04T11:44:01.841Z,34.60
2022-08-04T11:46:40.579Z,34.60
2022-08-04T11:49:12.990Z,34.60
2022-08-04T11:51:43.780Z,34.70
2022-08-04T11:54:13.427Z,34.70
2022-08-04T11:56:41.935Z,34.70
2022-08-04T11:59:11.388Z,34.80
2022-08-04T12:01:51.971Z,34.80
2022-08-04T12:04:27.037Z,34.90
2022-08-04T12:07:21.661Z,34.90
2022-08-04T12:09:57.344Z,34.90
2022-08-04T12:12:33.866Z,34.90
2022-08-04T12:15:15.391Z,35.00
2022-08-04T12:17:53.086Z,34.90
2022-08-04T12:20:31.784Z,34.90
2022-08-04T12:23:15.281Z,34.80
2022-08-04T12:25:48.851Z,34.90
2022-08-04T12:28:25.856Z,34.90
2022-08-04T12:31:05.133Z,35.00
2022-08-04T12:34:04.150Z,35.00
2022-08-04T12:36:36.800Z,35.00
2022-08-04T12:39:11.420Z,35.10
2022-08-04T12:41:43.333Z,35.10
2022-08-04T12:44:36.914Z,35.20
2022-08-04T12:47:27.260Z,35.20
2022-08-04T12:50:00.729Z,35.20
2022-08-04T12:52:59.293Z,35.20
2022-08-04T12:55:23.834Z,35.20
2022-08-04T12:57:53.648Z,35.20
2022-08-04T13:00:31.218Z,35.30
2022-08-04T13:03:09.598Z,35.30
2022-08-04T13:05:40.798Z,35.30
2022-08-04T13:08:11.302Z,35.30
2022-08-04T13:10:42.442Z,35.40
2022-08-04T13:13:18.028Z,35.40
2022-08-04T13:16:00.224Z,35.40
2022-08-04T13:18:32.363Z,35.50
2022-08-04T13:22:19.686Z,35.40
2022-08-04T13:26:42.583Z,35.50
2022-08-04T13:29:16.485Z,35.40
2022-08-04T13:40:31.205Z,35.20
2022-08-04T13:47:39.355Z,34.80
2022-08-04T13:50:24.223Z,34.60
2022-08-04T13:53:12.463Z,34.40
2022-08-04T13:55:44.106Z,34.20
2022-08-04T13:58:25.823Z,34.00
2022-08-04T14:01:01.424Z,33.90
2022-08-04T14:12:10.950Z,33.30
2022-08-04T14:14:32.443Z,33.10
2022-08-04T14:17:05.572Z,32.90
2022-08-04T14:19:55.631Z,32.70
2022-08-04T14:22:36.878Z,32.10
2022-08-04T14:25:15.640Z,31.20
2022-08-04T14:27:48.209Z,30.20
2022-08-04T14:30:27.926Z,29.20
2022-08-04T14:32:58.027Z,28.30
2022-08-04T14:35:30.811Z,27.60
2022-08-04T14:38:14.688Z,27.10
2022-08-04T14:40:45.011Z,26.80
2022-08-04T14:43:19.053Z,26.60
2022-08-04T14:45:53.872Z,26.50
2022-08-04T14:48:23.920Z,26.50
2022-08-04T14:50:53.233Z,26.50
2022-08-04T14:53:29.317Z,26.60
2022-08-04T14:55:59.649Z,26.60
2022-08-04T14:58:36.761Z,26.60
2022-08-04T15:01:10.630Z,26.70
2022-08-04T15:03:48.285Z,26.70
2022-08-04T15:06:22.195Z,26.70
2022-08-04T15:08:51.982Z,26.70
2022-08-04T15:11:23.700Z,26.60
2022-08-04T15:13:54.350Z,26.60
2022-08-04T15:16:23.483Z,26.60
2022-08-04T15:18:52.781Z,26.50
2022-08-04T15:21:23.756Z,26.50
2022-08-04T15:23:52.692Z,26.40
2022-08-04T15:26:28.777Z,26.40
2022-08-04T15:29:06.178Z,26.40
2022-08-04T15:32:04.656Z,26.40
2022-08-04T15:34:29.579Z,26.40
2022-08-04T15:37:01.715Z,26.40
2022-08-04T15:39:37.092Z,26.40
2022-08-04T15:42:21.273Z,26.40
2022-08-04T15:45:20.632Z,26.40
2022-08-04T15:48:32.679Z,26.40
2022-08-04T15:51:14.641Z,26.40
2022-08-04T15:54:23.403Z,26.40
2022-08-04T15:57:01.122Z,26.40
2022-08-04T15:59:59.924Z,26.40
2022-08-04T16:02:47.275Z,26.30
2022-08-04T16:05:36.793Z,26.30
2022-08-04T16:08:17.615Z,26.30
2022-08-04T16:10:48.066Z,26.40
2022-08-04T16:13:19.488Z,26.30
2022-08-04T16:15:51.194Z,26.30
2022-08-04T16:18:39.570Z,26.30
2022-08-04T16:21:19.999Z,26.20
2022-08-04T16:24:09.644Z,26.20
2022-08-04T16:26:54.256Z,26.20
2022-08-04T16:29:42.379Z,26.10
2022-08-04T16:32:25.823Z,26.20
2022-08-04T16:34:59.803Z,26.30
2022-08-04T16:37:34.362Z,26.30
2022-08-04T16:40:34.547Z,26.40
2022-08-04T16:43:07.383Z,26.50
2022-08-04T16:45:51.258Z,26.60
2022-08-04T16:48:20.403Z,26.50
2022-08-04T16:51:03.182Z,26.50
2022-08-04T16:53:53.965Z,26.40
2022-08-04T16:56:32.988Z,26.40
2022-08-04T16:59:07.455Z,26.30
2022-08-04T17:01:36.039Z,26.20
2022-08-04T17:04:08.337Z,26.20
2022-08-04T17:06:40.759Z,26.10
2022-08-04T17:09:13.747Z,26.10
2022-08-04T17:11:42.758Z,26.10
2022-08-04T17:14:11.740Z,26.10
2022-08-04T17:16:41.509Z,26.10
2022-08-04T17:19:25.066Z,26.10
2022-08-04T17:22:04.066Z,26.10
2022-08-04T17:24:35.194Z,26.10
2022-08-04T17:28:19.792Z,26.10
2022-08-04T17:29:52.433Z,26.10
2022-08-04T17:32:23.496Z,26.20
2022-08-04T17:34:53.887Z,26.30
2022-08-04T17:37:52.904Z,26.60
2022-08-04T17:40:22.425Z,27.00
2022-08-04T17:43:03.234Z,27.20
2022-08-04T17:46:15.641Z,27.20
2022-08-04T17:49:05.996Z,27.20
2022-08-04T17:52:05.143Z,27.10
2022-08-04T17:54:37.260Z,26.90
2022-08-04T17:57:15.586Z,26.80
2022-08-04T18:02:41.622Z,26.80
2022-08-04T18:05:12.326Z,27.00
2022-08-04T18:08:38.803Z,27.00
2022-08-04T18:10:51.583Z,27.10
2022-08-04T18:13:28.067Z,27.30
2022-08-04T18:16:03.546Z,27.10
2022-08-04T18:18:31.921Z,26.90
2022-08-04T18:21:02.804Z,26.70
2022-08-04T18:23:33.294Z,26.60
2022-08-04T18:26:03.852Z,26.40
2022-08-04T18:28:33.217Z,26.30
2022-08-04T18:31:02.766Z,26.10
2022-08-04T18:36:33.611Z,26.00
2022-08-04T18:39:12.799Z,25.80
2022-08-04T18:42:02.269Z,25.80
2022-08-04T18:44:32.555Z,25.60
2022-08-04T18:47:22.093Z,25.50
2022-08-04T18:52:45.051Z,25.30
2022-08-04T18:55:55.690Z,25.20
2022-08-04T18:58:07.299Z,25.10
2022-08-04T19:00:45.653Z,25.00
2022-08-04T19:03:16.309Z,24.90
2022-08-04T19:05:44.879Z,24.80
2022-08-04T19:08:33.396Z,24.70
2022-08-04T19:11:35.325Z,24.60
2022-08-04T19:13:58.151Z,24.50
2022-08-04T19:16:28.498Z,24.30
2022-08-04T19:18:57.262Z,24.20
2022-08-04T19:22:00.684Z,24.20
2022-08-04T19:24:32.433Z,24.10
2022-08-04T19:27:07.538Z,24.00
2022-08-04T19:29:40.673Z,23.90
2022-08-04T19:32:13.787Z,23.90
2022-08-04T19:34:46.007Z,23.80
2022-08-04T19:37:56.855Z,23.70
2022-08-04T19:40:05.382Z,23.60
2022-08-04T19:42:34.638Z,23.50
2022-08-04T19:45:04.448Z,23.40
2022-08-04T19:48:11.536Z,23.40
2022-08-04T19:50:23.642Z,23.30
2022-08-04T19:52:53.011Z,23.30
2022-08-04T19:55:22.941Z,23.30
2022-08-04T19:58:07.556Z,23.20
2022-08-04T20:00:39.234Z,23.20
2022-08-04T20:03:11.378Z,23.10
2022-08-04T20:08:29.065Z,22.90
2022-08-04T20:10:58.240Z,22.80
2022-08-04T20:13:36.934Z,22.80
2022-08-04T20:16:28.378Z,22.70
2022-08-04T20:19:01.009Z,22.70
2022-08-04T20:21:36.598Z,22.70
2022-08-04T20:24:38.799Z,22.60
2022-08-04T20:27:11.695Z,22.60
2022-08-04T20:29:47.435Z,22.50
2022-08-04T20:32:20.186Z,22.50
2022-08-04T20:34:51.416Z,22.40
2022-08-04T20:37:22.822Z,22.30
2022-08-04T20:39:55.374Z,22.20
2022-08-04T20:42:27.129Z,22.20
2022-08-04T20:45:02.304Z,22.10
2022-08-04T20:47:35.212Z,22.00
2022-08-04T20:50:05.329Z,22.00
2022-08-04T20:52:37.819Z,22.00
2022-08-04T20:55:07.738Z,21.90
2022-08-04T20:57:47.707Z,21.80
2022-08-04T21:00:17.580Z,21.70
2022-08-04T21:02:56.160Z,21.70
2022-08-04T21:05:26.425Z,21.60
2022-08-04T21:07:56.739Z,21.60
2022-08-04T21:10:25.784Z,21.50
2022-08-04T21:12:54.511Z,21.50
2022-08-04T21:15:25.489Z,21.50
2022-08-04T21:17:59.415Z,21.40
2022-08-04T21:20:34.524Z,21.40
2022-08-04T21:23:05.071Z,21.30
2022-08-04T21:28:23.531Z,21.30
2022-08-04T21:30:54.943Z,21.30
2022-08-04T21:33:43.957Z,21.30
2022-08-04T21:36:16.119Z,21.20
2022-08-04T21:38:52.070Z,21.20
2022-08-04T21:41:25.014Z,21.10
2022-08-04T21:43:56.328Z,21.10
2022-08-04T21:46:26.996Z,21.10
2022-08-04T21:48:59.694Z,21.10
2022-08-04T21:51:58.432Z,21.10
2022-08-04T21:54:17.886Z,21.00
2022-08-04T21:56:50.687Z,21.00
2022-08-04T21:59:23.507Z,21.00
2022-08-04T22:01:56.758Z,21.00
2022-08-04T22:04:26.298Z,21.00
2022-08-04T22:06:54.383Z,21.00
2022-08-04T22:09:22.502Z,20.90
2022-08-04T22:11:51.963Z,20.90
2022-08-04T22:14:29.551Z,20.90
2022-08-04T22:17:04.248Z,20.90
2022-08-04T22:19:50.383Z,20.80
2022-08-04T22:22:24.999Z,20.80
2022-08-04T22:24:58.340Z,20.80
2022-08-04T22:27:44.440Z,20.80
2022-08-04T22:30:17.643Z,20.80
2022-08-04T22:32:47.020Z,20.80
2022-08-04T22:35:35.921Z,20.70
2022-08-04T22:38:26.763Z,20.70
2022-08-04T22:40:58.686Z,20.70
2022-08-04T22:43:32.204Z,20.70
2022-08-04T22:46:03.944Z,20.70
2022-08-04T22:48:32.601Z,20.60
2022-08-04T22:51:02.680Z,20.60
2022-08-04T22:53:31.096Z,20.60
2022-08-04T22:56:10.033Z,20.60
2022-08-04T22:58:45.562Z,20.60
2022-08-04T23:01:19.727Z,20.50
2022-08-04T23:03:56.113Z,20.50
2022-08-04T23:06:28.737Z,20.50
2022-08-04T23:08:59.308Z,20.50
2022-08-04T23:11:34.480Z,20.40
2022-08-04T23:14:03.142Z,20.40
2022-08-04T23:16:32.699Z,20.40
2022-08-04T23:19:09.890Z,20.40
2022-08-04T23:21:47.631Z,20.30
2022-08-04T23:24:19.434Z,20.30
2022-08-04T23:26:48.116Z,20.30
2022-08-04T23:29:16.208Z,20.30
2022-08-04T23:31:59.531Z,20.20
2022-08-04T23:34:29.301Z,20.20
2022-08-04T23:36:59.443Z,20.20
2022-08-04T23:40:03.314Z,20.20
2022-08-04T23:42:21.160Z,20.10
2022-08-04T23:44:49.902Z,20.10
2022-08-04T23:48:14.733Z,20.10
2022-08-04T23:50:07.679Z,20.10
2022-08-04T23:52:37.092Z,20.10
2022-08-04T23:55:07.647Z,20.20
2022-08-04T23:58:06.066Z,20.10
